PAMR/MRI METAR and TAF weather

Enter ICAO airport designator
Station Type Date Time Source
PAMR METAR 2021/01/20 21:53 UTC NOAA

PAMR 202153Z 30003KT 10SM OVC085 M02/M04 A3009 RMK AO2 SLP192 T10171044


Station Type Date Time Source
PAMR Decoded METAR 2021/01/20 21:53 UTC NOAA

ANCHORAGE MERRILL FIELD, AK, United States (PAMR) 61-13N 149-51W
Jan 20, 2021 - 04:53 PM EST / 2021.01.20 2153 UTC
Wind: from the WNW (300 degrees) at 3 MPH (3 KT):0
Visibility: 10 mile(s):0
Sky conditions: overcast
Temperature: 28.9 F (-1.7 C)
Dew Point: 24.1 F (-4.4 C)
Relative Humidity: 81%
Pressure (altimeter): 30.09 in. Hg (1018 hPa)
ob: PAMR 202153Z 30003KT 10SM OVC085 M02/M04 A3009 RMK AO2 SLP192 T10171044
cycle: 22

Station Type Date Time Source
PAMR TAF UTC NOAA

Error!

Example: see airport list